sensor_id;sensor_type;location;lat;lon;timestamp;pressure;altitude;pressure_sealevel;temperature;humidity
63090;BME280;49174;43.198;27.824;2023-04-07T00:01:28;101455.66;;;5.92;100.00
63090;BME280;49174;43.198;27.824;2023-04-07T00:03:54;101458.22;;;5.94;100.00
63090;BME280;49174;43.198;27.824;2023-04-07T00:06:19;101462.84;;;5.92;100.00
63090;BME280;49174;43.198;27.824;2023-04-07T00:08:45;101461.19;;;5.91;100.00
63090;BME280;49174;43.198;27.824;2023-04-07T00:11:10;101456.22;;;5.96;100.00
63090;BME280;49174;43.198;27.824;2023-04-07T00:13:36;101461.13;;;6.00;100.00
63090;BME280;49174;43.198;27.824;2023-04-07T00:16:01;101457.94;;;5.97;100.00
63090;BME280;49174;43.198;27.824;2023-04-07T00:18:27;101455.66;;;6.02;100.00
63090;BME280;49174;43.198;27.824;2023-04-07T00:20:52;101457.84;;;6.07;100.00
63090;BME280;49174;43.198;27.824;2023-04-07T00:23:18;101457.03;;;6.06;100.00
63090;BME280;49174;43.198;27.824;2023-04-07T00:25:44;101458.47;;;6.00;100.00
63090;BME280;49174;43.198;27.824;2023-04-07T00:28:09;101459.00;;;6.04;100.00
63090;BME280;49174;43.198;27.824;2023-04-07T00:30:35;101453.81;;;6.02;100.00
63090;BME280;49174;43.198;27.824;2023-04-07T00:33:00;101453.63;;;6.04;100.00
63090;BME280;49174;43.198;27.824;2023-04-07T00:35:26;101453.94;;;6.01;100.00
63090;BME280;49174;43.198;27.824;2023-04-07T00:37:51;101446.59;;;6.03;100.00
63090;BME280;49174;43.198;27.824;2023-04-07T00:40:16;101451.66;;;6.06;100.00
63090;BME280;49174;43.198;27.824;2023-04-07T00:42:42;101457.94;;;5.97;100.00
63090;BME280;49174;43.198;27.824;2023-04-07T00:45:08;101458.75;;;5.97;100.00
63090;BME280;49174;43.198;27.824;2023-04-07T00:47:35;101454.53;;;5.95;100.00
63090;BME280;49174;43.198;27.824;2023-04-07T00:50:05;101462.44;;;5.96;100.00
63090;BME280;49174;43.198;27.824;2023-04-07T00:52:32;101456.63;;;6.01;100.00
63090;BME280;49174;43.198;27.824;2023-04-07T00:54:58;101466.50;;;6.00;100.00
63090;BME280;49174;43.198;27.824;2023-04-07T00:57:24;101464.97;;;5.98;100.00
63090;BME280;49174;43.198;27.824;2023-04-07T00:59:51;101469.72;;;6.04;100.00
63090;BME280;49174;43.198;27.824;2023-04-07T01:07:22;101457.72;;;6.08;100.00
63090;BME280;49174;43.198;27.824;2023-04-07T01:10:03;101455.34;;;6.05;100.00
63090;BME280;49174;43.198;27.824;2023-04-07T01:15:10;101460.03;;;5.93;100.00
63090;BME280;49174;43.198;27.824;2023-04-07T01:17:42;101451.59;;;5.88;100.00
63090;BME280;49174;43.198;27.824;2023-04-07T01:20:13;101456.09;;;5.97;100.00
63090;BME280;49174;43.198;27.824;2023-04-07T01:22:44;101453.63;;;6.04;100.00
63090;BME280;49174;43.198;27.824;2023-04-07T01:30:17;101456.22;;;5.96;100.00
63090;BME280;49174;43.198;27.824;2023-04-07T01:32:46;101462.16;;;5.99;100.00
63090;BME280;49174;43.198;27.824;2023-04-07T01:35:15;101468.28;;;6.10;96.77
63090;BME280;49174;43.198;27.824;2023-04-07T01:37:42;101463.69;;;6.02;97.08
63090;BME280;49174;43.198;27.824;2023-04-07T01:40:11;101459.06;;;5.94;97.89
63090;BME280;49174;43.198;27.824;2023-04-07T01:42:38;101455.81;;;5.91;97.10
63090;BME280;49174;43.198;27.824;2023-04-07T01:45:04;101454.53;;;5.95;96.65
63090;BME280;49174;43.198;27.824;2023-04-07T01:47:31;101457.47;;;6.01;95.19
63090;BME280;49174;43.198;27.824;2023-04-07T01:49:58;101456.00;;;6.07;94.84
63090;BME280;49174;43.198;27.824;2023-04-07T01:52:26;101458.59;;;5.99;95.88
63090;BME280;49174;43.198;27.824;2023-04-07T01:54:53;101456.78;;;5.90;95.62
63090;BME280;49174;43.198;27.824;2023-04-07T01:57:19;101458.75;;;5.88;96.02
63090;BME280;49174;43.198;27.824;2023-04-07T01:59:44;101457.53;;;5.82;97.15
63090;BME280;49174;43.198;27.824;2023-04-07T02:02:10;101457.38;;;5.83;97.79
63090;BME280;49174;43.198;27.824;2023-04-07T02:04:55;101458.94;;;5.86;97.35
63090;BME280;49174;43.198;27.824;2023-04-07T02:10:08;101458.09;;;5.86;97.65
63090;BME280;49174;43.198;27.824;2023-04-07T02:12:36;101458.09;;;5.86;97.64
63090;BME280;49174;43.198;27.824;2023-04-07T02:15:05;101456.09;;;5.88;97.83
63090;BME280;49174;43.198;27.824;2023-04-07T02:17:35;101453.72;;;5.85;96.96
63090;BME280;49174;43.198;27.824;2023-04-07T02:20:02;101462.97;;;5.90;97.13
63090;BME280;49174;43.198;27.824;2023-04-07T02:22:30;101460.78;;;5.86;96.40
63090;BME280;49174;43.198;27.824;2023-04-07T02:24:57;101457.94;;;5.87;96.05
63090;BME280;49174;43.198;27.824;2023-04-07T02:27:22;101457.09;;;5.87;96.02
63090;BME280;49174;43.198;27.824;2023-04-07T02:29:48;101457.38;;;5.83;95.67
63090;BME280;49174;43.198;27.824;2023-04-07T02:32:13;101461.91;;;5.83;95.01
63090;BME280;49174;43.198;27.824;2023-04-07T02:34:39;101468.09;;;5.83;95.45
63090;BME280;49174;43.198;27.824;2023-04-07T02:37:05;101476.00;;;5.85;94.31
63090;BME280;49174;43.198;27.824;2023-04-07T02:39:30;101475.97;;;5.95;92.88
63090;BME280;49174;43.198;27.824;2023-04-07T02:41:56;101478.53;;;5.96;92.61
63090;BME280;49174;43.198;27.824;2023-04-07T02:44:21;101479.91;;;5.91;92.23
63090;BME280;49174;43.198;27.824;2023-04-07T02:46:47;101483.88;;;5.87;92.44
63090;BME280;49174;43.198;27.824;2023-04-07T02:49:12;101483.44;;;5.91;92.90
63090;BME280;49174;43.198;27.824;2023-04-07T02:51:38;101487.38;;;5.87;93.36
63090;BME280;49174;43.198;27.824;2023-04-07T02:54:03;101490.06;;;5.87;92.04
63090;BME280;49174;43.198;27.824;2023-04-07T02:56:29;101483.34;;;5.83;91.42
63090;BME280;49174;43.198;27.824;2023-04-07T02:58:55;101492.63;;;5.79;91.51
63090;BME280;49174;43.198;27.824;2023-04-07T03:01:21;101481.53;;;5.74;91.54
63090;BME280;49174;43.198;27.824;2023-04-07T03:03:46;101496.63;;;5.65;91.39
63090;BME280;49174;43.198;27.824;2023-04-07T03:06:12;101495.50;;;5.68;90.58
63090;BME280;49174;43.198;27.824;2023-04-07T03:08:38;101503.94;;;5.73;89.31
63090;BME280;49174;43.198;27.824;2023-04-07T03:11:03;101497.59;;;5.74;87.69
63090;BME280;49174;43.198;27.824;2023-04-07T03:13:29;101505.06;;;5.70;88.15
63090;BME280;49174;43.198;27.824;2023-04-07T03:15:55;101491.56;;;5.72;86.48
63090;BME280;49174;43.198;27.824;2023-04-07T03:18:21;101496.34;;;5.68;87.01
63090;BME280;49174;43.198;27.824;2023-04-07T03:20:47;101498.22;;;5.58;87.16
63090;BME280;49174;43.198;27.824;2023-04-07T03:23:13;101505.41;;;5.57;86.13
63090;BME280;49174;43.198;27.824;2023-04-07T03:25:39;101504.28;;;5.60;83.73
63090;BME280;49174;43.198;27.824;2023-04-07T03:28:05;101513.44;;;5.57;82.81
63090;BME280;49174;43.198;27.824;2023-04-07T03:30:30;101512.75;;;5.55;83.21
63090;BME280;49174;43.198;27.824;2023-04-07T03:32:56;101508.09;;;5.57;82.71
63090;BME280;49174;43.198;27.824;2023-04-07T03:35:21;101514.59;;;5.55;82.08
63090;BME280;49174;43.198;27.824;2023-04-07T03:37:47;101511.91;;;5.55;80.01
63090;BME280;49174;43.198;27.824;2023-04-07T03:40:12;101514.00;;;5.51;80.80
63090;BME280;49174;43.198;27.824;2023-04-07T03:42:38;101514.13;;;5.59;80.39
63090;BME280;49174;43.198;27.824;2023-04-07T03:45:04;101520.31;;;5.70;80.74
63090;BME280;49174;43.198;27.824;2023-04-07T03:47:30;101528.19;;;5.71;83.18
63090;BME280;49174;43.198;27.824;2023-04-07T03:49:55;101520.06;;;5.63;83.80
63090;BME280;49174;43.198;27.824;2023-04-07T03:52:21;101524.84;;;5.59;84.33
63090;BME280;49174;43.198;27.824;2023-04-07T03:54:47;101538.63;;;5.65;84.76
63090;BME280;49174;43.198;27.824;2023-04-07T03:57:12;101533.88;;;5.58;84.30
63090;BME280;49174;43.198;27.824;2023-04-07T03:59:38;101533.03;;;5.58;84.76
63090;BME280;49174;43.198;27.824;2023-04-07T04:02:04;101538.94;;;5.62;83.12
63090;BME280;49174;43.198;27.824;2023-04-07T04:04:29;101538.38;;;5.58;84.19
63090;BME280;49174;43.198;27.824;2023-04-07T04:06:55;101546.00;;;5.53;83.10
63090;BME280;49174;43.198;27.824;2023-04-07T04:09:20;101543.72;;;5.58;80.81
63090;BME280;49174;43.198;27.824;2023-04-07T04:11:46;101546.41;;;5.58;82.21
63090;BME280;49174;43.198;27.824;2023-04-07T04:14:12;101556.41;;;5.66;80.81
63090;BME280;49174;43.198;27.824;2023-04-07T04:16:37;101554.84;;;5.63;81.40
63090;BME280;49174;43.198;27.824;2023-04-07T04:19:03;101559.22;;;5.64;81.00
63090;BME280;49174;43.198;27.824;2023-04-07T04:21:28;101557.53;;;5.63;80.38
63090;BME280;49174;43.198;27.824;2023-04-07T04:23:54;101561.59;;;5.67;79.00
63090;BME280;49174;43.198;27.824;2023-04-07T04:26:20;101574.09;;;5.76;77.90
63090;BME280;49174;43.198;27.824;2023-04-07T04:28:50;101560.59;;;5.78;78.90
63090;BME280;49174;43.198;27.824;2023-04-07T04:31:15;101571.66;;;5.93;76.07
63090;BME280;49174;43.198;27.824;2023-04-07T04:33:41;101572.09;;;5.98;75.40
63090;BME280;49174;43.198;27.824;2023-04-07T04:36:06;101572.81;;;6.00;77.50
63090;BME280;49174;43.198;27.824;2023-04-07T04:38:32;101574.66;;;5.99;77.97
63090;BME280;49174;43.198;27.824;2023-04-07T04:40:57;101572.38;;;6.04;78.57
63090;BME280;49174;43.198;27.824;2023-04-07T04:43:23;101583.88;;;6.15;76.43
63090;BME280;49174;43.198;27.824;2023-04-07T04:45:49;101578.63;;;6.23;76.43
63090;BME280;49174;43.198;27.824;2023-04-07T04:48:15;101587.28;;;6.17;77.15
63090;BME280;49174;43.198;27.824;2023-04-07T04:50:41;101588.66;;;6.21;77.05
63090;BME280;49174;43.198;27.824;2023-04-07T04:53:07;101584.84;;;6.23;77.60
63090;BME280;49174;43.198;27.824;2023-04-07T04:55:34;101590.59;;;6.29;77.99
63090;BME280;49174;43.198;27.824;2023-04-07T04:58:00;101593.69;;;6.34;78.17
63090;BME280;49174;43.198;27.824;2023-04-07T05:00:25;101588.72;;;6.39;78.14
63090;BME280;49174;43.198;27.824;2023-04-07T05:02:51;101599.53;;;6.47;78.59
63090;BME280;49174;43.198;27.824;2023-04-07T05:05:17;101597.28;;;6.52;77.29
63090;BME280;49174;43.198;27.824;2023-04-07T05:07:42;101597.09;;;6.54;78.26
63090;BME280;49174;43.198;27.824;2023-04-07T05:10:08;101597.63;;;6.57;77.70
63090;BME280;49174;43.198;27.824;2023-04-07T05:12:34;101602.44;;;6.63;76.32
63090;BME280;49174;43.198;27.824;2023-04-07T05:14:59;101601.50;;;6.72;76.20
63090;BME280;49174;43.198;27.824;2023-04-07T05:17:25;101602.31;;;6.83;74.40
63090;BME280;49174;43.198;27.824;2023-04-07T05:19:50;101599.41;;;6.94;73.85
63090;BME280;49174;43.198;27.824;2023-04-07T05:22:16;101606.00;;;7.00;74.76
63090;BME280;49174;43.198;27.824;2023-04-07T05:24:42;101600.78;;;6.98;75.79
63090;BME280;49174;43.198;27.824;2023-04-07T05:27:07;101616.44;;;7.03;73.64
63090;BME280;49174;43.198;27.824;2023-04-07T05:29:35;101614.28;;;7.06;73.96
63090;BME280;49174;43.198;27.824;2023-04-07T05:32:00;101604.25;;;7.08;74.27
63090;BME280;49174;43.198;27.824;2023-04-07T05:34:26;101615.69;;;7.10;73.41
63090;BME280;49174;43.198;27.824;2023-04-07T05:36:52;101610.84;;;7.14;72.81
63090;BME280;49174;43.198;27.824;2023-04-07T05:39:18;101616.50;;;7.11;73.54
63090;BME280;49174;43.198;27.824;2023-04-07T05:41:44;101612.06;;;7.20;73.52
63090;BME280;49174;43.198;27.824;2023-04-07T05:44:09;101621.16;;;7.27;71.43
63090;BME280;49174;43.198;27.824;2023-04-07T05:46:35;101613.50;;;7.32;73.00
63090;BME280;49174;43.198;27.824;2023-04-07T05:49:00;101617.28;;;7.39;73.32
63090;BME280;49174;43.198;27.824;2023-04-07T05:51:26;101614.97;;;7.26;71.44
63090;BME280;49174;43.198;27.824;2023-04-07T05:53:52;101618.78;;;7.24;72.19
63090;BME280;49174;43.198;27.824;2023-04-07T05:56:17;101620.19;;;7.28;70.66
63090;BME280;49174;43.198;27.824;2023-04-07T05:58:43;101625.78;;;7.34;69.80
63090;BME280;49174;43.198;27.824;2023-04-07T06:01:08;101626.31;;;7.38;69.48
63090;BME280;49174;43.198;27.824;2023-04-07T06:03:34;101628.47;;;7.52;69.00
63090;BME280;49174;43.198;27.824;2023-04-07T06:05:59;101624.47;;;7.56;69.84
63090;BME280;49174;43.198;27.824;2023-04-07T06:08:25;101626.56;;;7.71;69.67
63090;BME280;49174;43.198;27.824;2023-04-07T06:10:51;101627.66;;;7.78;68.98
63090;BME280;49174;43.198;27.824;2023-04-07T06:13:16;101629.69;;;7.84;67.57
63090;BME280;49174;43.198;27.824;2023-04-07T06:15:42;101621.69;;;7.92;67.96
63090;BME280;49174;43.198;27.824;2023-04-07T06:18:08;101627.19;;;8.09;70.31
63090;BME280;49174;43.198;27.824;2023-04-07T06:20:34;101634.66;;;8.23;66.76
63090;BME280;49174;43.198;27.824;2023-04-07T06:23:00;101641.56;;;8.25;65.28
63090;BME280;49174;43.198;27.824;2023-04-07T06:25:25;101636.00;;;8.27;64.93
63090;BME280;49174;43.198;27.824;2023-04-07T06:27:52;101645.97;;;8.35;68.07
63090;BME280;49174;43.198;27.824;2023-04-07T06:30:17;101638.66;;;8.45;67.80
63090;BME280;49174;43.198;27.824;2023-04-07T06:32:43;101642.59;;;8.59;63.07
63090;BME280;49174;43.198;27.824;2023-04-07T06:35:08;101640.75;;;8.59;62.25
63090;BME280;49174;43.198;27.824;2023-04-07T06:37:34;101641.75;;;8.58;61.97
63090;BME280;49174;43.198;27.824;2023-04-07T06:39:59;101650.31;;;8.54;60.46
63090;BME280;49174;43.198;27.824;2023-04-07T06:42:25;101649.63;;;8.52;59.86
63090;BME280;49174;43.198;27.824;2023-04-07T06:44:51;101648.13;;;8.57;60.17
63090;BME280;49174;43.198;27.824;2023-04-07T06:47:16;101650.38;;;8.70;58.98
63090;BME280;49174;43.198;27.824;2023-04-07T06:49:42;101638.81;;;8.86;59.25
63090;BME280;49174;43.198;27.824;2023-04-07T06:52:07;101656.81;;;8.93;56.00
63090;BME280;49174;43.198;27.824;2023-04-07T06:54:33;101650.66;;;9.09;54.87
63090;BME280;49174;43.198;27.824;2023-04-07T06:56:58;101657.25;;;9.23;57.15
63090;BME280;49174;43.198;27.824;2023-04-07T06:59:27;101644.13;;;9.28;57.42
63090;BME280;49174;43.198;27.824;2023-04-07T07:01:52;101657.06;;;9.33;56.63
63090;BME280;49174;43.198;27.824;2023-04-07T07:04:18;101655.56;;;9.38;57.42
63090;BME280;49174;43.198;27.824;2023-04-07T07:06:43;101657.94;;;9.58;57.32
63090;BME280;49174;43.198;27.824;2023-04-07T07:09:09;101661.81;;;9.72;54.37
63090;BME280;49174;43.198;27.824;2023-04-07T07:11:35;101656.97;;;9.75;54.43
63090;BME280;49174;43.198;27.824;2023-04-07T07:14:00;101660.63;;;9.91;54.29
63090;BME280;49174;43.198;27.824;2023-04-07T07:16:25;101656.75;;;10.10;54.08
63090;BME280;49174;43.198;27.824;2023-04-07T07:18:53;101665.81;;;10.33;49.36
63090;BME280;49174;43.198;27.824;2023-04-07T07:21:19;101664.44;;;10.45;49.14
63090;BME280;49174;43.198;27.824;2023-04-07T07:23:44;101668.78;;;10.55;49.80
63090;BME280;49174;43.198;27.824;2023-04-07T07:26:10;101665.94;;;10.56;49.55
63090;BME280;49174;43.198;27.824;2023-04-07T07:28:35;101672.97;;;10.65;46.44
63090;BME280;49174;43.198;27.824;2023-04-07T07:31:10;101678.09;;;10.83;47.66
63090;BME280;49174;43.198;27.824;2023-04-07T07:33:38;101679.75;;;11.01;48.50
63090;BME280;49174;43.198;27.824;2023-04-07T07:36:05;101667.19;;;11.08;43.97
63090;BME280;49174;43.198;27.824;2023-04-07T07:38:30;101677.91;;;10.93;47.71
63090;BME280;49174;43.198;27.824;2023-04-07T07:40:56;101681.69;;;10.84;48.24
63090;BME280;49174;43.198;27.824;2023-04-07T07:43:22;101682.47;;;11.24;46.54
63090;BME280;49174;43.198;27.824;2023-04-07T07:45:48;101675.88;;;11.49;45.28
63090;BME280;49174;43.198;27.824;2023-04-07T07:48:13;101680.19;;;11.58;44.83
63090;BME280;49174;43.198;27.824;2023-04-07T07:50:39;101684.28;;;11.54;42.93
63090;BME280;49174;43.198;27.824;2023-04-07T07:53:04;101683.41;;;11.62;43.38
63090;BME280;49174;43.198;27.824;2023-04-07T07:55:30;101679.63;;;11.48;42.24
63090;BME280;49174;43.198;27.824;2023-04-07T07:57:56;101677.28;;;11.45;41.51
63090;BME280;49174;43.198;27.824;2023-04-07T08:00:21;101680.97;;;11.44;41.34
63090;BME280;49174;43.198;27.824;2023-04-07T08:02:48;101679.78;;;11.47;42.15
63090;BME280;49174;43.198;27.824;2023-04-07T08:05:14;101682.19;;;11.41;42.13
63090;BME280;49174;43.198;27.824;2023-04-07T08:07:39;101680.72;;;11.31;41.47
63090;BME280;49174;43.198;27.824;2023-04-07T08:10:07;101681.69;;;11.38;39.57
63090;BME280;49174;43.198;27.824;2023-04-07T08:12:33;101682.63;;;11.53;42.11
63090;BME280;49174;43.198;27.824;2023-04-07T08:14:59;101679.91;;;11.76;42.12
63090;BME280;49174;43.198;27.824;2023-04-07T08:17:25;101680.00;;;11.83;42.75
63090;BME280;49174;43.198;27.824;2023-04-07T08:19:50;101669.00;;;12.07;45.59
63090;BME280;49174;43.198;27.824;2023-04-07T08:22:16;101678.16;;;12.36;42.86
63090;BME280;49174;43.198;27.824;2023-04-07T08:24:44;101676.66;;;12.34;41.67
63090;BME280;49174;43.198;27.824;2023-04-07T08:27:09;101685.97;;;12.16;41.57
63090;BME280;49174;43.198;27.824;2023-04-07T08:29:35;101688.28;;;12.04;40.86
63090;BME280;49174;43.198;27.824;2023-04-07T08:32:00;101679.97;;;12.06;40.04
63090;BME280;49174;43.198;27.824;2023-04-07T08:34:26;101680.09;;;12.13;39.58
63090;BME280;49174;43.198;27.824;2023-04-07T08:36:51;101686.72;;;12.25;40.11
63090;BME280;49174;43.198;27.824;2023-04-07T08:39:17;101676.75;;;12.25;40.50
63090;BME280;49174;43.198;27.824;2023-04-07T08:41:43;101677.50;;;12.19;40.21
63090;BME280;49174;43.198;27.824;2023-04-07T08:44:10;101685.81;;;12.18;40.23
63090;BME280;49174;43.198;27.824;2023-04-07T08:46:37;101687.00;;;12.15;41.35
63090;BME280;49174;43.198;27.824;2023-04-07T08:49:07;101689.91;;;12.14;40.97
63090;BME280;49174;43.198;27.824;2023-04-07T08:51:36;101690.94;;;12.13;40.63
63090;BME280;49174;43.198;27.824;2023-04-07T08:56:33;101688.66;;;12.01;41.96
63090;BME280;49174;43.198;27.824;2023-04-07T08:59:00;101698.84;;;12.14;42.62
63090;BME280;49174;43.198;27.824;2023-04-07T09:01:27;101688.78;;;12.23;41.66
63090;BME280;49174;43.198;27.824;2023-04-07T09:03:55;101690.41;;;12.32;42.46
63090;BME280;49174;43.198;27.824;2023-04-07T09:06:22;101702.13;;;12.24;40.72
63090;BME280;49174;43.198;27.824;2023-04-07T09:08:48;101708.31;;;12.33;42.35
63090;BME280;49174;43.198;27.824;2023-04-07T09:11:14;101709.72;;;12.29;40.26
63090;BME280;49174;43.198;27.824;2023-04-07T09:13:39;101710.72;;;12.28;41.70
63090;BME280;49174;43.198;27.824;2023-04-07T09:16:05;101712.13;;;12.39;40.79
63090;BME280;49174;43.198;27.824;2023-04-07T09:18:31;101702.06;;;12.47;40.70
63090;BME280;49174;43.198;27.824;2023-04-07T09:25:57;101708.13;;;12.79;41.94
63090;BME280;49174;43.198;27.824;2023-04-07T09:28:24;101711.78;;;12.71;40.06
63090;BME280;49174;43.198;27.824;2023-04-07T09:30:54;101707.75;;;12.82;38.68
63090;BME280;49174;43.198;27.824;2023-04-07T09:33:27;101701.56;;;13.03;40.01
63090;BME280;49174;43.198;27.824;2023-04-07T09:35:53;101698.59;;;13.34;42.12
63090;BME280;49174;43.198;27.824;2023-04-07T09:38:18;101705.50;;;13.37;38.52
63090;BME280;49174;43.198;27.824;2023-04-07T09:40:44;101710.88;;;13.30;40.19
63090;BME280;49174;43.198;27.824;2023-04-07T09:43:18;101704.78;;;13.28;39.46
63090;BME280;49174;43.198;27.824;2023-04-07T09:45:45;101711.53;;;13.32;40.75
63090;BME280;49174;43.198;27.824;2023-04-07T09:48:18;101703.84;;;13.36;41.95
63090;BME280;49174;43.198;27.824;2023-04-07T09:50:44;101713.47;;;13.38;41.27
63090;BME280;49174;43.198;27.824;2023-04-07T09:53:14;101705.16;;;13.40;41.50
63090;BME280;49174;43.198;27.824;2023-04-07T09:55:41;101711.91;;;13.51;39.37
63090;BME280;49174;43.198;27.824;2023-04-07T09:58:08;101712.16;;;13.34;43.08
63090;BME280;49174;43.198;27.824;2023-04-07T10:00:36;101708.81;;;13.32;41.76
63090;BME280;49174;43.198;27.824;2023-04-07T10:03:02;101711.88;;;13.44;41.90
63090;BME280;49174;43.198;27.824;2023-04-07T10:05:29;101711.75;;;13.52;40.38
63090;BME280;49174;43.198;27.824;2023-04-07T10:07:55;101712.13;;;13.49;40.82
63090;BME280;49174;43.198;27.824;2023-04-07T10:10:21;101714.59;;;13.66;42.33
63090;BME280;49174;43.198;27.824;2023-04-07T10:12:49;101715.97;;;13.76;39.95
63090;BME280;49174;43.198;27.824;2023-04-07T10:15:17;101717.75;;;13.91;38.90
63090;BME280;49174;43.198;27.824;2023-04-07T10:17:46;101718.31;;;13.86;39.59
63090;BME280;49174;43.198;27.824;2023-04-07T10:20:13;101715.56;;;13.79;38.30
63090;BME280;49174;43.198;27.824;2023-04-07T10:22:41;101717.28;;;13.87;40.14
63090;BME280;49174;43.198;27.824;2023-04-07T10:25:10;101720.50;;;13.97;41.38
63090;BME280;49174;43.198;27.824;2023-04-07T10:27:47;101721.94;;;13.93;41.05
63090;BME280;49174;43.198;27.824;2023-04-07T10:30:28;101719.53;;;14.05;40.94
63090;BME280;49174;43.198;27.824;2023-04-07T10:32:55;101717.53;;;13.92;40.58
63090;BME280;49174;43.198;27.824;2023-04-07T10:35:21;101719.28;;;13.78;40.96
63090;BME280;49174;43.198;27.824;2023-04-07T10:40:31;101710.13;;;13.79;40.69
63090;BME280;49174;43.198;27.824;2023-04-07T10:42:57;101714.00;;;13.92;40.56
63090;BME280;49174;43.198;27.824;2023-04-07T10:48:11;101710.34;;;14.34;40.24
63090;BME280;49174;43.198;27.824;2023-04-07T10:50:37;101715.44;;;14.44;39.33
63090;BME280;49174;43.198;27.824;2023-04-07T10:53:11;101714.41;;;14.45;38.86
63090;BME280;49174;43.198;27.824;2023-04-07T10:55:45;101713.28;;;14.61;39.98
63090;BME280;49174;43.198;27.824;2023-04-07T10:58:30;101708.81;;;14.18;38.03
63090;BME280;49174;43.198;27.824;2023-04-07T11:03:27;101702.91;;;14.15;39.12
63090;BME280;49174;43.198;27.824;2023-04-07T11:06:09;101709.13;;;14.08;39.26
63090;BME280;49174;43.198;27.824;2023-04-07T11:08:43;101703.81;;;14.22;40.64
63090;BME280;49174;43.198;27.824;2023-04-07T11:11:12;101714.38;;;14.38;40.87
63090;BME280;49174;43.198;27.824;2023-04-07T11:13:41;101711.09;;;14.49;38.96
63090;BME280;49174;43.198;27.824;2023-04-07T11:16:08;101698.81;;;14.53;38.09
63090;BME280;49174;43.198;27.824;2023-04-07T11:18:34;101707.94;;;14.18;39.01
63090;BME280;49174;43.198;27.824;2023-04-07T11:21:00;101711.59;;;14.31;39.90
63090;BME280;49174;43.198;27.824;2023-04-07T11:23:27;101714.16;;;14.12;39.46
63090;BME280;49174;43.198;27.824;2023-04-07T11:26:01;101714.31;;;14.31;40.80
63090;BME280;49174;43.198;27.824;2023-04-07T11:28:27;101714.81;;;14.42;39.63
63090;BME280;49174;43.198;27.824;2023-04-07T11:30:53;101710.09;;;14.29;39.81
63090;BME280;49174;43.198;27.824;2023-04-07T11:33:21;101708.59;;;14.20;41.03
63090;BME280;49174;43.198;27.824;2023-04-07T11:35:54;101710.06;;;14.22;40.93
63090;BME280;49174;43.198;27.824;2023-04-07T11:38:21;101717.66;;;14.34;41.47
63090;BME280;49174;43.198;27.824;2023-04-07T12:03:13;101701.59;;;16.23;38.58
63090;BME280;49174;43.198;27.824;2023-04-07T12:20:20;101683.84;;;15.12;37.37
63090;BME280;49174;43.198;27.824;2023-04-07T14:04:22;101719.22;;;14.78;46.19
63090;BME280;49174;43.198;27.824;2023-04-07T14:17:36;101729.34;;;13.84;52.15
63090;BME280;49174;43.198;27.824;2023-04-07T14:31:42;101748.59;;;12.28;57.43
63090;BME280;49174;43.198;27.824;2023-04-07T14:34:10;101750.16;;;12.22;57.66
63090;BME280;49174;43.198;27.824;2023-04-07T15:20:20;101795.66;;;9.47;64.58
63090;BME280;49174;43.198;27.824;2023-04-07T15:22:45;101797.19;;;9.49;65.54
63090;BME280;49174;43.198;27.824;2023-04-07T15:25:11;101789.91;;;9.33;63.27
63090;BME280;49174;43.198;27.824;2023-04-07T15:27:37;101803.97;;;9.19;64.82
63090;BME280;49174;43.198;27.824;2023-04-07T15:30:03;101803.28;;;9.09;65.37
63090;BME280;49174;43.198;27.824;2023-04-07T15:32:31;101801.34;;;8.93;65.22
63090;BME280;49174;43.198;27.824;2023-04-07T15:34:57;101805.19;;;8.90;66.49
63090;BME280;49174;43.198;27.824;2023-04-07T15:37:23;101812.22;;;8.83;67.31
63090;BME280;49174;43.198;27.824;2023-04-07T15:39:49;101804.50;;;8.88;67.27
63090;BME280;49174;43.198;27.824;2023-04-07T15:47:39;101816.22;;;8.79;67.96
63090;BME280;49174;43.198;27.824;2023-04-07T15:50:05;101811.22;;;8.84;68.37
63090;BME280;49174;43.198;27.824;2023-04-07T15:52:31;101806.53;;;8.86;68.40
63090;BME280;49174;43.198;27.824;2023-04-07T16:00:21;101833.75;;;8.83;69.96
63090;BME280;49174;43.198;27.824;2023-04-07T16:08:32;101845.13;;;8.77;71.60
63090;BME280;49174;43.198;27.824;2023-04-07T16:10:58;101831.94;;;8.66;71.57
63090;BME280;49174;43.198;27.824;2023-04-07T16:13:24;101842.09;;;8.72;72.89
63090;BME280;49174;43.198;27.824;2023-04-07T16:15:54;101847.56;;;8.88;72.55
63090;BME280;49174;43.198;27.824;2023-04-07T16:18:21;101850.50;;;8.77;69.57
63090;BME280;49174;43.198;27.824;2023-04-07T16:20:46;101855.06;;;8.77;71.24
63090;BME280;49174;43.198;27.824;2023-04-07T16:23:12;101863.41;;;8.91;70.82
63090;BME280;49174;43.198;27.824;2023-04-07T16:25:37;101864.00;;;9.03;70.43
63090;BME280;49174;43.198;27.824;2023-04-07T16:28:03;101862.88;;;9.14;70.65
63090;BME280;49174;43.198;27.824;2023-04-07T16:30:28;101869.94;;;9.15;69.62
63090;BME280;49174;43.198;27.824;2023-04-07T16:32:54;101873.94;;;9.11;70.12
63090;BME280;49174;43.198;27.824;2023-04-07T16:35:19;101876.59;;;9.03;71.32
63090;BME280;49174;43.198;27.824;2023-04-07T16:37:45;101871.13;;;8.86;72.25
63090;BME280;49174;43.198;27.824;2023-04-07T16:40:11;101875.22;;;8.99;72.96
63090;BME280;49174;43.198;27.824;2023-04-07T16:45:19;101885.41;;;9.13;73.29
63090;BME280;49174;43.198;27.824;2023-04-07T16:47:44;101890.22;;;9.01;73.72
63090;BME280;49174;43.198;27.824;2023-04-07T16:50:11;101893.63;;;8.85;74.20
63090;BME280;49174;43.198;27.824;2023-04-07T16:52:36;101898.03;;;8.86;74.30
63090;BME280;49174;43.198;27.824;2023-04-07T16:55:02;101898.63;;;8.80;75.16
63090;BME280;49174;43.198;27.824;2023-04-07T16:57:27;101906.16;;;8.94;74.37